Terminal Aerodrome Forecast
Issued by NWS

Current Version | Previous Version | Text Only | Print | Product List | Glossary On
Versions: 1 2 3 4 5 6 7 8 9 10 11 12 13 14 15 16 17 18 19 20 21 22 23
000
FTUS45 KGJT 211730
TAFVEL
TAF
KVEL 211730Z 2118/2218 VRB03KT P6SM VCSH OVC080
      TEMPO 2118/2120 -RA OVC050
     FM212000 13007KT P6SM VCTS SCT070CB BKN120
     FM220100 31004KT P6SM VCTS SCT040CB OVC070
     FM220600 30005KT P6SM VCSH SCT040 BKN070
     FM221200 VRB02KT P6SM BKN100=

USA.gov is the U.S. government's official web portal to all federal, state and local government web resources and services.